createdAt,value
2017-11-26T00:01:06.300Z,3.49
2017-11-26T00:02:15.419Z,3.46
2017-11-26T00:03:24.516Z,3.48
2017-11-26T00:04:33.606Z,3.48
2017-11-26T00:05:42.147Z,3.46
2017-11-26T00:06:51.231Z,3.49
2017-11-26T00:08:00.336Z,3.49
2017-11-26T00:09:08.869Z,3.56
2017-11-26T00:10:17.680Z,3.53
2017-11-26T00:11:26.212Z,3.49
2017-11-26T00:12:35.288Z,3.53
2017-11-26T00:13:44.723Z,3.54
2017-11-26T00:14:54.083Z,3.56
2017-11-26T00:16:02.898Z,3.56
2017-11-26T00:17:12.030Z,3.53
2017-11-26T00:18:20.836Z,3.57
2017-11-26T00:19:30.434Z,3.56
2017-11-26T00:20:39.785Z,3.49
2017-11-26T00:21:48.885Z,3.54
2017-11-26T00:22:57.983Z,3.57
2017-11-26T00:24:07.060Z,3.49
2017-11-26T00:25:15.604Z,3.57
2017-11-26T00:26:24.487Z,3.6
2017-11-26T00:27:33.608Z,3.56
2017-11-26T00:28:42.894Z,3.54
2017-11-26T00:29:51.535Z,3.66
2017-11-26T00:31:00.356Z,3.69
2017-11-26T00:32:08.890Z,3.72
2017-11-26T00:33:17.969Z,3.76
2017-11-26T00:34:26.507Z,3.75
2017-11-26T00:35:35.311Z,3.82
2017-11-26T00:36:44.389Z,3.97
2017-11-26T00:37:53.204Z,3.85
2017-11-26T00:39:01.809Z,3.97
2017-11-26T00:40:10.618Z,3.96
2017-11-26T00:41:19.157Z,4.03
2017-11-26T00:42:27.959Z,4.03
2017-11-26T00:43:36.767Z,3.96
2017-11-26T00:44:45.856Z,4.04
2017-11-26T00:45:54.393Z,4.07
2017-11-26T00:47:03.204Z,4.11
2017-11-26T00:48:12.010Z,4.14
2017-11-26T00:49:20.544Z,4.14
2017-11-26T00:50:29.348Z,4.15
2017-11-26T00:51:37.888Z,4.17
2017-11-26T00:52:46.979Z,4.15
2017-11-26T00:53:55.513Z,4.21
2017-11-26T00:55:04.050Z,4.15
2017-11-26T00:56:12.857Z,4.22
2017-11-26T00:57:21.729Z,4.3
2017-11-26T00:58:30.818Z,4.28
2017-11-26T00:59:39.643Z,4.15
2017-11-26T01:00:48.720Z,4.28
2017-11-26T01:01:57.388Z,4.29
2017-11-26T01:03:05.926Z,4.32
2017-11-26T01:04:14.736Z,4.32
2017-11-26T01:05:23.540Z,4.26
2017-11-26T01:06:33.195Z,4.28
2017-11-26T01:07:42.435Z,4.26
2017-11-26T01:08:51.557Z,4.15
2017-11-26T01:10:00.647Z,4.21
2017-11-26T01:11:09.744Z,4.22
2017-11-26T01:12:18.848Z,4.12
2017-11-26T01:13:27.436Z,4.12
2017-11-26T01:14:36.014Z,3.96
2017-11-26T01:15:44.821Z,4.18
2017-11-26T01:16:53.658Z,4.1
2017-11-26T01:18:02.464Z,4.08
2017-11-26T01:19:11.546Z,4.04
2017-11-26T01:20:20.362Z,4.08
2017-11-26T01:21:28.925Z,4.04
2017-11-26T01:22:37.969Z,4
2017-11-26T01:23:47.592Z,4.08
2017-11-26T01:24:56.668Z,4.03
2017-11-26T01:26:05.474Z,4.02
2017-11-26T01:27:14.830Z,3.99
2017-11-26T01:28:23.909Z,4.08
2017-11-26T01:29:32.709Z,4
2017-11-26T01:30:41.793Z,3.99
2017-11-26T01:31:50.329Z,3.97
2017-11-26T01:32:59.135Z,4.04
2017-11-26T01:34:08.211Z,3.96
2017-11-26T01:35:16.795Z,3.97
2017-11-26T01:36:25.614Z,3.96
2017-11-26T01:37:34.150Z,4
2017-11-26T01:38:42.959Z,3.94
2017-11-26T01:39:51.503Z,3.92
2017-11-26T01:41:00.334Z,3.93
2017-11-26T01:42:08.870Z,4
2017-11-26T01:43:17.701Z,3.97
2017-11-26T01:44:27.084Z,3.86
2017-11-26T01:45:35.971Z,3.97
2017-11-26T01:46:44.655Z,3.92
2017-11-26T01:47:54.083Z,3.82
2017-11-26T01:49:03.182Z,3.85
2017-11-26T01:50:11.989Z,3.84
2017-11-26T01:51:20.796Z,3.84
2017-11-26T01:52:29.337Z,3.85
2017-11-26T01:53:38.732Z,3.85
2017-11-26T01:54:47.533Z,3.89
2017-11-26T01:55:56.337Z,3.78
2017-11-26T01:57:04.879Z,3.81
2017-11-26T01:58:13.412Z,3.79
2017-11-26T01:59:21.957Z,3.79
2017-11-26T02:00:30.761Z,3.84
2017-11-26T02:01:39.857Z,3.81
2017-11-26T02:02:48.665Z,3.84
2017-11-26T02:03:57.206Z,3.81
2017-11-26T02:05:06.010Z,3.82
2017-11-26T02:06:14.821Z,3.81
2017-11-26T02:07:23.451Z,3.78
2017-11-26T02:08:32.258Z,3.74
2017-11-26T02:09:40.796Z,3.74
2017-11-26T02:10:49.611Z,3.79
2017-11-26T02:11:58.146Z,3.79
2017-11-26T02:13:06.956Z,3.82
2017-11-26T02:14:16.047Z,3.82
2017-11-26T02:15:25.142Z,3.84
2017-11-26T02:16:33.967Z,3.84
2017-11-26T02:17:42.813Z,3.86
2017-11-26T02:18:51.355Z,3.9
2017-11-26T02:20:00.809Z,3.9
2017-11-26T02:21:10.556Z,3.94
2017-11-26T02:22:19.374Z,3.94
2017-11-26T02:23:27.911Z,3.92
2017-11-26T02:24:36.723Z,3.93
2017-11-26T02:25:45.259Z,3.97
2017-11-26T02:26:54.583Z,3.85
2017-11-26T02:28:03.394Z,3.92
2017-11-26T02:29:12.766Z,3.93
2017-11-26T02:30:21.860Z,4
2017-11-26T02:31:30.677Z,3.93
2017-11-26T02:32:39.491Z,3.94
2017-11-26T02:33:48.026Z,3.9
2017-11-26T02:34:56.561Z,3.96
2017-11-26T02:36:05.380Z,3.96
2017-11-26T02:37:14.222Z,3.94
2017-11-26T02:38:22.756Z,3.99
2017-11-26T02:39:31.707Z,3.97
2017-11-26T02:40:40.333Z,3.94
2017-11-26T02:41:49.146Z,3.92
2017-11-26T02:42:57.712Z,3.9
2017-11-26T02:44:06.260Z,3.93
2017-11-26T02:45:14.858Z,3.97
2017-11-26T02:46:23.481Z,3.92
2017-11-26T02:47:32.846Z,3.92
2017-11-26T02:48:41.403Z,3.9
2017-11-26T02:49:50.527Z,3.85
2017-11-26T02:50:59.369Z,3.85
2017-11-26T02:52:07.918Z,3.81
2017-11-26T02:53:17.017Z,3.84
2017-11-26T02:54:26.847Z,3.89
2017-11-26T02:55:35.630Z,3.82
2017-11-26T02:56:44.671Z,3.81
2017-11-26T02:57:53.811Z,3.81
2017-11-26T02:59:02.616Z,3.81
2017-11-26T03:00:11.573Z,3.71
2017-11-26T03:01:20.849Z,3.75
2017-11-26T03:02:30.089Z,3.79
2017-11-26T03:03:38.750Z,3.75
2017-11-26T03:04:48.507Z,3.69
2017-11-26T03:05:57.195Z,3.71
2017-11-26T03:07:05.947Z,3.63
2017-11-26T03:08:14.618Z,3.66
2017-11-26T03:09:23.458Z,3.66
2017-11-26T03:10:32.034Z,3.74
2017-11-26T03:11:40.762Z,3.72
2017-11-26T03:12:49.918Z,3.66
2017-11-26T03:13:59.264Z,3.64
2017-11-26T03:15:07.801Z,3.64
2017-11-26T03:16:16.876Z,3.69
2017-11-26T03:17:25.690Z,3.66
2017-11-26T03:18:34.499Z,3.58
2017-11-26T03:19:43.045Z,3.58
2017-11-26T03:20:52.127Z,3.63
2017-11-26T03:22:00.660Z,3.57
2017-11-26T03:23:09.211Z,3.6
2017-11-26T03:24:17.747Z,3.56
2017-11-26T03:25:26.278Z,3.49
2017-11-26T03:26:34.822Z,3.53
2017-11-26T03:27:43.382Z,3.56
2017-11-26T03:28:52.208Z,3.51
2017-11-26T03:30:01.053Z,3.48
2017-11-26T03:31:10.131Z,3.48
2017-11-26T03:32:18.948Z,3.49
2017-11-26T03:33:27.480Z,3.51
2017-11-26T03:34:36.016Z,3.49
2017-11-26T03:35:44.768Z,3.51
2017-11-26T03:36:53.576Z,3.53
2017-11-26T03:38:02.408Z,3.43
2017-11-26T03:39:11.224Z,3.45
2017-11-26T03:40:19.758Z,3.46
2017-11-26T03:41:28.292Z,3.42
2017-11-26T03:42:37.107Z,3.48
2017-11-26T03:43:45.640Z,3.46
2017-11-26T03:44:54.173Z,3.43
2017-11-26T03:46:02.977Z,3.4
2017-11-26T03:47:11.515Z,3.42
2017-11-26T03:48:20.326Z,3.45
2017-11-26T03:49:29.403Z,3.4
2017-11-26T03:50:38.212Z,3.4
2017-11-26T03:51:47.015Z,3.42
2017-11-26T03:52:56.095Z,3.42
2017-11-26T03:54:04.648Z,3.48
2017-11-26T03:55:13.213Z,3.42
2017-11-26T03:56:22.315Z,3.4
2017-11-26T03:57:30.838Z,3.45
2017-11-26T03:58:40.189Z,3.45
2017-11-26T03:59:49.003Z,3.46
2017-11-26T04:00:57.808Z,3.43
2017-11-26T04:02:06.888Z,3.43
2017-11-26T04:03:15.428Z,3.46
2017-11-26T04:04:23.962Z,3.4
2017-11-26T04:05:32.764Z,3.48
2017-11-26T04:06:41.569Z,3.43
2017-11-26T04:07:50.612Z,3.45
2017-11-26T04:08:59.532Z,3.43
2017-11-26T04:10:08.627Z,3.42
2017-11-26T04:11:17.436Z,3.48
2017-11-26T04:12:26.515Z,3.42
2017-11-26T04:13:35.049Z,3.45
2017-11-26T04:14:43.583Z,3.43
2017-11-26T04:15:52.117Z,3.39
2017-11-26T04:17:00.936Z,3.34
2017-11-26T04:18:10.238Z,3.4
2017-11-26T04:19:19.048Z,3.42
2017-11-26T04:20:27.582Z,3.45
2017-11-26T04:21:36.383Z,3.39
2017-11-26T04:22:44.916Z,3.4
2017-11-26T04:23:53.720Z,3.46
2017-11-26T04:25:02.805Z,3.46
2017-11-26T04:26:11.339Z,3.4
2017-11-26T04:27:19.874Z,3.34
2017-11-26T04:28:28.694Z,3.4
2017-11-26T04:29:37.497Z,3.42
2017-11-26T04:30:46.311Z,3.34
2017-11-26T04:31:54.844Z,3.34
2017-11-26T04:33:03.647Z,3.39
2017-11-26T04:34:12.466Z,3.43
2017-11-26T04:35:21.549Z,3.39
2017-11-26T04:36:30.393Z,3.45
2017-11-26T04:37:39.472Z,3.4
2017-11-26T04:38:48.277Z,3.39
2017-11-26T04:39:57.355Z,3.43
2017-11-26T04:41:05.892Z,3.43
2017-11-26T04:42:14.432Z,3.46
2017-11-26T04:43:22.968Z,3.45
2017-11-26T04:44:31.776Z,3.43
2017-11-26T04:45:40.857Z,3.45
2017-11-26T04:46:49.934Z,3.4
2017-11-26T04:47:58.478Z,3.45
2017-11-26T04:49:07.272Z,3.42
2017-11-26T04:50:16.353Z,3.4
2017-11-26T04:51:24.886Z,3.43
2017-11-26T04:52:33.690Z,3.39
2017-11-26T04:53:42.219Z,3.42
2017-11-26T04:54:51.027Z,3.45
2017-11-26T04:55:59.560Z,3.39
2017-11-26T04:57:08.647Z,3.46
2017-11-26T04:58:17.454Z,3.4
2017-11-26T04:59:26.263Z,3.45
2017-11-26T05:00:35.070Z,3.4
2017-11-26T05:01:43.606Z,3.45
2017-11-26T05:02:52.412Z,3.45
2017-11-26T05:04:01.217Z,3.4
2017-11-26T05:05:10.022Z,3.42
2017-11-26T05:06:18.559Z,3.46
2017-11-26T05:07:27.365Z,3.46
2017-11-26T05:08:36.449Z,3.48
2017-11-26T05:09:45.250Z,3.53
2017-11-26T05:10:54.338Z,3.49
2017-11-26T05:12:03.414Z,3.51
2017-11-26T05:13:12.491Z,3.48
2017-11-26T05:14:21.023Z,3.43
2017-11-26T05:15:29.831Z,3.53
2017-11-26T05:16:38.366Z,3.45
2017-11-26T05:17:46.898Z,3.42
2017-11-26T05:18:55.430Z,3.45
2017-11-26T05:20:05.310Z,3.45
2017-11-26T05:21:13.844Z,3.48
2017-11-26T05:22:22.649Z,3.49
2017-11-26T05:23:31.455Z,3.53
2017-11-26T05:24:40.270Z,3.51
2017-11-26T05:25:49.351Z,3.57
2017-11-26T05:26:58.155Z,3.61
2017-11-26T05:28:07.234Z,3.61
2017-11-26T05:29:16.318Z,3.6
2017-11-26T05:30:25.130Z,3.56
2017-11-26T05:31:33.665Z,3.53
2017-11-26T05:32:42.198Z,3.54
2017-11-26T05:33:50.733Z,3.51
2017-11-26T05:34:59.270Z,3.57
2017-11-26T05:36:08.357Z,3.57
2017-11-26T05:37:16.894Z,3.6
2017-11-26T05:38:25.434Z,3.57
2017-11-26T05:39:33.974Z,3.53
2017-11-26T05:40:42.784Z,3.49
2017-11-26T05:41:51.862Z,3.53
2017-11-26T05:43:00.397Z,3.49
2017-11-26T05:44:08.932Z,3.53
2017-11-26T05:45:18.023Z,3.53
2017-11-26T05:46:27.107Z,3.53
2017-11-26T05:47:36.185Z,3.48
2017-11-26T05:48:44.984Z,3.51
2017-11-26T05:49:54.077Z,3.49
2017-11-26T05:51:02.610Z,3.49
2017-11-26T05:52:11.144Z,3.49
2017-11-26T05:53:19.947Z,3.46
2017-11-26T05:54:28.754Z,3.43
2017-11-26T05:55:37.561Z,3.49
2017-11-26T05:56:46.098Z,3.46
2017-11-26T05:57:55.439Z,3.56
2017-11-26T05:59:03.974Z,3.53
2017-11-26T06:00:12.506Z,3.64
2017-11-26T06:01:21.052Z,3.61
2017-11-26T06:02:29.590Z,3.67
2017-11-26T06:03:38.937Z,3.72
2017-11-26T06:04:47.472Z,3.71
2017-11-26T06:05:56.280Z,3.67
2017-11-26T06:07:05.088Z,3.69
2017-11-26T06:08:14.182Z,3.78
2017-11-26T06:09:23.260Z,3.71
2017-11-26T06:10:32.335Z,3.78
2017-11-26T06:11:41.417Z,3.74
2017-11-26T06:12:50.235Z,3.76
2017-11-26T06:13:58.769Z,3.74
2017-11-26T06:15:07.579Z,3.81
2017-11-26T06:16:16.117Z,3.82
2017-11-26T06:17:25.198Z,3.75
2017-11-26T06:18:34.549Z,3.79
2017-11-26T06:19:43.370Z,3.71
2017-11-26T06:20:51.910Z,3.75
2017-11-26T06:22:00.446Z,3.82
2017-11-26T06:23:09.851Z,3.75
2017-11-26T06:24:18.670Z,3.81
2017-11-26T06:25:27.472Z,3.89
2017-11-26T06:26:36.009Z,3.82
2017-11-26T06:27:44.813Z,4
2017-11-26T06:28:53.616Z,3.9
2017-11-26T06:30:02.147Z,3.94
2017-11-26T06:31:10.682Z,4.02
2017-11-26T06:32:19.493Z,4
2017-11-26T06:33:28.033Z,3.93
2017-11-26T06:34:36.561Z,4.03
2017-11-26T06:35:45.370Z,4.03
2017-11-26T06:36:53.908Z,3.99
2017-11-26T06:38:02.442Z,3.99
2017-11-26T06:39:11.247Z,4.03
2017-11-26T06:40:20.056Z,3.93
2017-11-26T06:41:29.131Z,4.08
2017-11-26T06:42:37.939Z,4.04
2017-11-26T06:43:46.469Z,4.03
2017-11-26T06:44:55.001Z,4.03
2017-11-26T06:46:03.810Z,4.04
2017-11-26T06:47:12.618Z,4
2017-11-26T06:48:21.423Z,4.02
2017-11-26T06:49:29.958Z,4.07
2017-11-26T06:50:38.502Z,4
2017-11-26T06:51:47.304Z,4.03
2017-11-26T06:52:55.838Z,4.04
2017-11-26T06:54:04.371Z,4.02
2017-11-26T06:55:16.092Z,4.07
2017-11-26T06:56:24.626Z,4.08
2017-11-26T06:57:33.156Z,4.03
2017-11-26T06:58:41.696Z,4.14
2017-11-26T06:59:50.502Z,4.14
2017-11-26T07:00:59.309Z,4.11
2017-11-26T07:02:08.395Z,4.14
2017-11-26T07:03:17.196Z,4.2
2017-11-26T07:04:26.001Z,4.21
2017-11-26T07:05:34.537Z,4.17
2017-11-26T07:06:43.621Z,4.33
2017-11-26T07:07:52.426Z,4.2
2017-11-26T07:09:01.229Z,4.32
2017-11-26T07:10:10.052Z,4.28
2017-11-26T07:11:19.140Z,4.17
2017-11-26T07:12:27.939Z,4.29
2017-11-26T07:13:36.744Z,4.3
2017-11-26T07:14:45.551Z,4.35
2017-11-26T07:15:54.636Z,4.35
2017-11-26T07:17:03.713Z,4.38
2017-11-26T07:18:12.247Z,4.42
2017-11-26T07:19:21.328Z,4.44
2017-11-26T07:20:30.135Z,4.4
2017-11-26T07:21:38.962Z,4.47
2017-11-26T07:22:47.779Z,4.44
2017-11-26T07:23:57.137Z,4.42
2017-11-26T07:25:05.691Z,4.47
2017-11-26T07:26:14.210Z,4.42
2017-11-26T07:27:23.293Z,4.46
2017-11-26T07:28:32.103Z,4.44
2017-11-26T07:29:40.907Z,4.42
2017-11-26T07:30:49.984Z,4.4
2017-11-26T07:31:58.788Z,4.42
2017-11-26T07:33:07.867Z,4.4
2017-11-26T07:34:16.949Z,4.42
2017-11-26T07:35:25.488Z,4.42
2017-11-26T07:36:34.293Z,4.47
2017-11-26T07:37:42.827Z,4.48
2017-11-26T07:38:51.915Z,4.48
2017-11-26T07:40:00.988Z,4.47
2017-11-26T07:41:09.805Z,4.47
2017-11-26T07:42:18.338Z,4.42
2017-11-26T07:43:26.876Z,4.47
2017-11-26T07:44:35.683Z,4.48
2017-11-26T07:45:44.228Z,4.5
2017-11-26T07:46:53.033Z,4.54
2017-11-26T07:48:02.122Z,4.53
2017-11-26T07:49:10.664Z,4.5
2017-11-26T07:50:19.745Z,4.54
2017-11-26T07:51:28.550Z,4.5
2017-11-26T07:52:37.086Z,4.48
2017-11-26T07:53:45.892Z,4.53
2017-11-26T07:54:54.997Z,4.65
2017-11-26T07:56:03.532Z,4.54
2017-11-26T07:57:12.069Z,4.61
2017-11-26T07:58:20.607Z,4.68
2017-11-26T07:59:29.143Z,4.69
2017-11-26T08:00:37.680Z,4.74
2017-11-26T08:01:46.757Z,4.72
2017-11-26T08:02:55.992Z,4.74
2017-11-26T08:04:04.807Z,4.74
2017-11-26T08:05:13.891Z,4.72
2017-11-26T08:06:22.755Z,4.84
2017-11-26T08:07:31.292Z,4.78
2017-11-26T08:08:40.099Z,4.87
2017-11-26T08:09:49.183Z,4.88
2017-11-26T08:10:57.985Z,4.91
2017-11-26T08:12:06.795Z,4.85
2017-11-26T08:13:15.606Z,4.83
2017-11-26T08:14:24.437Z,4.91
2017-11-26T08:15:33.242Z,4.85
2017-11-26T08:16:42.593Z,4.9
2017-11-26T08:17:51.406Z,4.94
2017-11-26T08:19:00.502Z,4.84
2017-11-26T08:20:09.290Z,4.9
2017-11-26T08:21:18.251Z,4.92
2017-11-26T08:22:27.340Z,4.92
2017-11-26T08:23:36.158Z,4.92
2017-11-26T08:24:44.802Z,4.94
2017-11-26T08:25:53.339Z,4.95
2017-11-26T08:27:02.433Z,5
2017-11-26T08:28:11.251Z,4.98
2017-11-26T08:29:20.071Z,4.91
2017-11-26T08:30:29.140Z,4.98
2017-11-26T08:31:37.671Z,5.06
2017-11-26T08:32:46.209Z,5.06
2017-11-26T08:33:55.017Z,4.98
2017-11-26T08:35:04.101Z,5
2017-11-26T08:36:13.177Z,5.06
2017-11-26T08:37:21.713Z,5.1
2017-11-26T08:38:30.519Z,5.05
2017-11-26T08:39:39.056Z,4.98
2017-11-26T08:40:48.137Z,5.03
2017-11-26T08:41:56.673Z,5
2017-11-26T08:43:05.757Z,5.03
2017-11-26T08:44:14.297Z,5.06
2017-11-26T08:45:23.109Z,5.13
2017-11-26T08:46:31.919Z,5.15
2017-11-26T08:47:40.457Z,5.21
2017-11-26T08:48:49.273Z,5.1
2017-11-26T08:49:57.800Z,5.2
2017-11-26T08:51:06.342Z,5.23
2017-11-26T08:52:15.440Z,5.15
2017-11-26T08:53:23.992Z,5.18
2017-11-26T08:54:32.531Z,5.16
2017-11-26T08:55:41.068Z,5.21
2017-11-26T08:56:49.966Z,5.21
2017-11-26T08:57:58.500Z,5.26
2017-11-26T08:59:07.313Z,5.24
2017-11-26T09:00:16.121Z,5.24
2017-11-26T09:01:25.202Z,5.34
2017-11-26T09:02:34.282Z,5.31
2017-11-26T09:03:43.068Z,5.36
2017-11-26T09:04:52.153Z,5.39
2017-11-26T09:06:01.237Z,5.37
2017-11-26T09:07:10.159Z,5.39
2017-11-26T09:08:18.746Z,5.42
2017-11-26T09:09:27.825Z,5.37
2017-11-26T09:10:36.680Z,5.46
2017-11-26T09:11:45.208Z,5.39
2017-11-26T09:12:54.014Z,5.46
2017-11-26T09:14:02.549Z,5.37
2017-11-26T09:15:11.402Z,5.49
2017-11-26T09:16:19.898Z,5.49
2017-11-26T09:17:29.012Z,5.51
2017-11-26T09:18:37.811Z,5.48
2017-11-26T09:19:46.348Z,5.48
2017-11-26T09:20:55.426Z,5.51
2017-11-26T09:22:04.234Z,5.55
2017-11-26T09:23:12.770Z,5.55
2017-11-26T09:24:21.311Z,5.52
2017-11-26T09:25:29.847Z,5.59
2017-11-26T09:26:38.388Z,5.63
2017-11-26T09:27:47.481Z,5.59
2017-11-26T09:28:56.031Z,5.6
2017-11-26T09:30:04.837Z,5.7
2017-11-26T09:31:13.650Z,5.67
2017-11-26T09:32:22.457Z,5.67
2017-11-26T09:33:31.264Z,5.66
2017-11-26T09:34:40.083Z,5.69
2017-11-26T09:35:49.202Z,5.8
2017-11-26T09:36:58.320Z,5.8
2017-11-26T09:38:06.847Z,5.75
2017-11-26T09:39:15.385Z,5.73
2017-11-26T09:40:24.228Z,5.73
2017-11-26T09:41:33.036Z,5.8
2017-11-26T09:42:41.843Z,5.8
2017-11-26T09:43:50.657Z,5.82
2017-11-26T09:44:59.213Z,5.81
2017-11-26T09:46:08.030Z,5.75
2017-11-26T09:47:16.571Z,5.85
2017-11-26T09:48:25.418Z,5.82
2017-11-26T09:49:33.999Z,5.84
2017-11-26T09:50:42.833Z,5.96
2017-11-26T09:51:51.968Z,5.95
2017-11-26T09:53:00.582Z,6
2017-11-26T09:54:09.438Z,5.96
2017-11-26T09:55:18.541Z,5.99
2017-11-26T09:56:27.365Z,5.92
2017-11-26T09:57:36.444Z,6
2017-11-26T09:58:45.524Z,5.99
2017-11-26T09:59:54.610Z,6.03
2017-11-26T10:01:03.731Z,6.02
2017-11-26T10:02:12.264Z,6.02
2017-11-26T10:03:20.804Z,6.13
2017-11-26T10:04:29.617Z,6.13
2017-11-26T10:05:38.699Z,6.13
2017-11-26T10:06:47.237Z,6.14
2017-11-26T10:07:56.323Z,6.25
2017-11-26T10:09:05.408Z,6.15
2017-11-26T10:10:14.254Z,6.18
2017-11-26T10:11:23.095Z,6.26
2017-11-26T10:12:32.011Z,6.28
2017-11-26T10:13:40.695Z,6.28
2017-11-26T10:14:49.552Z,6.26
2017-11-26T10:15:58.646Z,6.24
2017-11-26T10:17:07.764Z,6.33
2017-11-26T10:18:17.115Z,6.26
2017-11-26T10:19:26.286Z,6.33
2017-11-26T10:20:34.848Z,6.24
2017-11-26T10:21:43.397Z,6.33
2017-11-26T10:22:51.932Z,6.42
2017-11-26T10:24:00.738Z,6.43
2017-11-26T10:25:09.274Z,6.46
2017-11-26T10:26:18.082Z,6.36
2017-11-26T10:27:26.927Z,6.55
2017-11-26T10:28:35.819Z,6.47
2017-11-26T10:29:44.637Z,6.49
2017-11-26T10:30:53.460Z,6.54
2017-11-26T10:32:02.519Z,6.54
2017-11-26T10:33:11.337Z,6.52
2017-11-26T10:34:20.417Z,6.54
2017-11-26T10:35:29.508Z,6.52
2017-11-26T10:36:38.635Z,6.54
2017-11-26T10:37:47.188Z,6.61
2017-11-26T10:38:56.273Z,6.61
2017-11-26T10:40:05.082Z,6.55
2017-11-26T10:41:13.910Z,6.58
2017-11-26T10:42:22.993Z,6.57
2017-11-26T10:43:31.801Z,6.58
2017-11-26T10:44:40.774Z,6.57
2017-11-26T10:45:49.422Z,6.57
2017-11-26T10:46:57.956Z,6.57
2017-11-26T10:48:06.491Z,6.64
2017-11-26T10:49:15.298Z,6.55
2017-11-26T10:50:24.415Z,6.57
2017-11-26T10:51:32.992Z,6.55
2017-11-26T10:52:41.830Z,6.55
2017-11-26T10:53:50.404Z,6.61
2017-11-26T10:54:59.234Z,6.61
2017-11-26T10:56:08.047Z,6.6
2017-11-26T10:57:16.860Z,6.58
2017-11-26T10:58:25.399Z,6.6
2017-11-26T10:59:34.216Z,6.64
2017-11-26T11:00:43.026Z,6.72
2017-11-26T11:01:51.830Z,6.7
2017-11-26T11:03:00.640Z,6.68
2017-11-26T11:04:09.183Z,6.78
2017-11-26T11:05:18.013Z,6.78
2017-11-26T11:06:26.843Z,6.72
2017-11-26T11:07:35.686Z,6.75
2017-11-26T11:08:44.529Z,6.73
2017-11-26T11:09:53.363Z,6.79
2017-11-26T11:11:02.192Z,6.72
2017-11-26T11:12:10.731Z,6.75
2017-11-26T11:13:20.378Z,6.85
2017-11-26T11:14:28.917Z,6.82
2017-11-26T11:15:37.458Z,6.88
2017-11-26T11:16:46.284Z,6.9
2017-11-26T11:17:54.863Z,6.97
2017-11-26T11:19:03.977Z,7.03
2017-11-26T11:20:12.530Z,6.98
2017-11-26T11:21:21.127Z,7
2017-11-26T11:22:30.220Z,7.05
2017-11-26T11:23:39.342Z,7.03
2017-11-26T11:24:47.884Z,7.09
2017-11-26T11:25:56.694Z,7.15
2017-11-26T11:27:05.502Z,7.19
2017-11-26T11:28:14.040Z,7.18
2017-11-26T11:29:22.854Z,7.21
2017-11-26T11:30:31.936Z,7.29
2017-11-26T11:31:41.019Z,7.16
2017-11-26T11:32:50.118Z,7.23
2017-11-26T11:33:58.932Z,7.11
2017-11-26T11:35:07.751Z,7.13
2017-11-26T11:36:16.564Z,7.16
2017-11-26T11:37:25.100Z,7.16
2017-11-26T11:38:34.028Z,7.13
2017-11-26T11:39:43.112Z,7.03
2017-11-26T11:40:51.925Z,7.11
2017-11-26T11:42:00.738Z,7.03
2017-11-26T11:43:09.556Z,7.04
2017-11-26T11:44:18.097Z,7.01
2017-11-26T11:45:26.635Z,7.03
2017-11-26T11:46:35.173Z,7.05
2017-11-26T11:47:43.982Z,7.04
2017-11-26T11:48:53.371Z,6.98
2017-11-26T11:50:01.916Z,6.97
2017-11-26T11:51:10.730Z,7.01
2017-11-26T11:52:19.540Z,7.13
2017-11-26T11:53:28.111Z,7.04
2017-11-26T11:54:36.658Z,7.13
2017-11-26T11:55:45.187Z,7.04
2017-11-26T11:56:53.992Z,6.95
2017-11-26T11:58:02.548Z,6.94
2017-11-26T11:59:11.348Z,6.98
2017-11-26T12:00:20.160Z,6.97
2017-11-26T12:01:28.970Z,6.97
2017-11-26T12:02:37.506Z,6.88
2017-11-26T12:03:46.312Z,6.86
2017-11-26T12:04:55.121Z,6.82
2017-11-26T12:06:03.948Z,6.85
2017-11-26T12:07:12.483Z,6.82
2017-11-26T12:08:21.024Z,6.82
2017-11-26T12:09:29.558Z,6.93
2017-11-26T12:10:38.095Z,6.86
2017-11-26T12:11:46.908Z,6.85
2017-11-26T12:12:55.469Z,7.01
2017-11-26T12:14:04.280Z,7.04
2017-11-26T12:15:13.088Z,7.05
2017-11-26T12:16:21.626Z,7.13
2017-11-26T12:17:30.705Z,7.05
2017-11-26T12:18:39.527Z,7.01
2017-11-26T12:19:48.065Z,7.11
2017-11-26T12:20:56.877Z,7.15
2017-11-26T12:22:06.504Z,7.09
2017-11-26T12:23:15.311Z,7.08
2017-11-26T12:24:24.119Z,7.03
2017-11-26T12:25:32.929Z,7.09
2017-11-26T12:26:41.464Z,7.03
2017-11-26T12:27:50.275Z,7.04
2017-11-26T12:28:59.085Z,7
2017-11-26T12:30:07.899Z,6.94
2017-11-26T12:31:16.708Z,7.01
2017-11-26T12:32:25.517Z,6.94
2017-11-26T12:33:34.059Z,7.01
2017-11-26T12:34:42.596Z,6.98
2017-11-26T12:35:51.420Z,7.03
2017-11-26T12:37:00.842Z,7.13
2017-11-26T12:38:09.347Z,7.3
2017-11-26T12:39:18.707Z,7.26
2017-11-26T12:40:27.248Z,7.37
2017-11-26T12:41:36.599Z,7.41
2017-11-26T12:42:45.141Z,7.52
2017-11-26T12:43:53.678Z,7.61
2017-11-26T12:45:02.761Z,7.56
2017-11-26T12:46:11.299Z,7.63
2017-11-26T12:47:19.838Z,7.59
2017-11-26T12:48:28.376Z,7.67
2017-11-26T12:49:37.456Z,7.73
2017-11-26T12:50:46.262Z,7.61
2017-11-26T12:51:55.355Z,7.7
2017-11-26T12:53:03.906Z,7.78
2017-11-26T12:54:12.434Z,7.82
2017-11-26T12:55:20.977Z,7.82
2017-11-26T12:56:29.522Z,7.8
2017-11-26T12:57:38.605Z,7.96
2017-11-26T12:58:47.421Z,7.92
2017-11-26T12:59:56.511Z,8.03
2017-11-26T13:01:05.043Z,8.04
2017-11-26T13:02:13.855Z,8.11
2017-11-26T13:03:22.942Z,8.1
2017-11-26T13:04:31.750Z,8.16
2017-11-26T13:05:40.290Z,8.16
2017-11-26T13:06:48.835Z,8.19
2017-11-26T13:07:57.654Z,8.25
2017-11-26T13:09:06.472Z,8.21
2017-11-26T13:10:15.278Z,8.28
2017-11-26T13:11:24.087Z,8.28
2017-11-26T13:12:32.626Z,8.24
2017-11-26T13:13:41.164Z,8.21
2017-11-26T13:14:49.705Z,8.26
2017-11-26T13:15:58.520Z,8.22
2017-11-26T13:17:07.337Z,8.19
2017-11-26T13:18:16.149Z,8.25
2017-11-26T13:19:24.966Z,8.26
2017-11-26T13:20:33.774Z,8.31
2017-11-26T13:21:42.311Z,8.32
2017-11-26T13:22:51.125Z,8.36
2017-11-26T13:24:00.208Z,8.35
2017-11-26T13:25:09.017Z,8.35
2017-11-26T13:26:18.484Z,8.31
2017-11-26T13:27:27.022Z,8.32
2017-11-26T13:28:35.564Z,8.36
2017-11-26T13:29:44.375Z,8.31
2017-11-26T13:30:53.183Z,8.26
2017-11-26T13:32:01.722Z,8.24
2017-11-26T13:33:10.803Z,8.31
2017-11-26T13:34:19.345Z,8.25
2017-11-26T13:35:28.161Z,8.22
2017-11-26T13:36:37.243Z,8.17
2017-11-26T13:37:46.052Z,8.24
2017-11-26T13:38:54.590Z,8.13
2017-11-26T13:40:03.397Z,8.1
2017-11-26T13:41:11.935Z,8.07
2017-11-26T13:42:20.746Z,8.22
2017-11-26T13:43:29.559Z,8.21
2017-11-26T13:44:38.641Z,8.13
2017-11-26T13:45:47.730Z,8.16
2017-11-26T13:46:56.271Z,8.21
2017-11-26T13:48:04.812Z,8.09
2017-11-26T13:49:13.895Z,8.19
2017-11-26T13:50:22.972Z,8.21
2017-11-26T13:51:31.790Z,8.14
2017-11-26T13:52:41.137Z,8.22
2017-11-26T13:53:49.676Z,8.21
2017-11-26T13:54:58.417Z,8.22
2017-11-26T13:56:06.958Z,8.29
2017-11-26T13:57:15.497Z,8.29
2017-11-26T13:58:24.307Z,8.26
2017-11-26T13:59:33.401Z,8.29
2017-11-26T14:00:41.960Z,8.26
2017-11-26T14:01:51.018Z,8.31
2017-11-26T14:02:59.555Z,8.34
2017-11-26T14:04:08.365Z,8.25
2017-11-26T14:05:17.445Z,8.28
2017-11-26T14:06:25.982Z,8.28
2017-11-26T14:07:34.521Z,8.26
2017-11-26T14:08:43.333Z,8.29
2017-11-26T14:09:52.416Z,8.32
2017-11-26T14:11:01.498Z,8.29
2017-11-26T14:12:10.308Z,8.34
2017-11-26T14:13:19.407Z,8.26
2017-11-26T14:14:28.216Z,8.34
2017-11-26T14:15:36.753Z,8.26
2017-11-26T14:16:45.393Z,8.39
2017-11-26T14:17:54.743Z,8.26
2017-11-26T14:19:03.559Z,8.29
2017-11-26T14:20:12.098Z,8.32
2017-11-26T14:21:20.984Z,8.39
2017-11-26T14:22:29.804Z,8.34
2017-11-26T14:23:38.354Z,8.42
2017-11-26T14:24:46.890Z,8.36
2017-11-26T14:25:55.700Z,8.47
2017-11-26T14:27:04.508Z,8.32
2017-11-26T14:28:13.319Z,8.4
2017-11-26T14:29:21.860Z,8.36
2017-11-26T14:30:30.676Z,8.32
2017-11-26T14:31:39.509Z,8.36
2017-11-26T14:32:48.325Z,8.5
2017-11-26T14:33:56.864Z,8.29
2017-11-26T14:35:05.675Z,8.42
2017-11-26T14:36:14.212Z,8.42
2017-11-26T14:37:23.133Z,8.42
2017-11-26T14:38:32.223Z,8.35
2017-11-26T14:39:40.761Z,8.4
2017-11-26T14:40:49.841Z,8.25
2017-11-26T14:41:58.378Z,8.31
2017-11-26T14:43:07.456Z,8.22
2017-11-26T14:44:15.998Z,8.17
2017-11-26T14:45:24.825Z,8.14
2017-11-26T14:46:33.361Z,8.06
2017-11-26T14:47:42.177Z,7.96
2017-11-26T14:48:50.991Z,7.96
2017-11-26T14:49:59.534Z,7.88
2017-11-26T14:51:08.071Z,7.89
2017-11-26T14:52:16.884Z,7.78
2017-11-26T14:53:25.694Z,7.74
2017-11-26T14:54:34.501Z,7.71
2017-11-26T14:55:43.308Z,7.68
2017-11-26T14:56:52.117Z,7.64
2017-11-26T14:58:00.934Z,7.55
2017-11-26T14:59:09.734Z,7.56
2017-11-26T15:00:18.543Z,7.64
2017-11-26T15:01:27.083Z,7.54
2017-11-26T15:02:35.641Z,7.51
2017-11-26T15:03:44.706Z,7.54
2017-11-26T15:04:53.516Z,7.54
2017-11-26T15:06:02.055Z,7.49
2017-11-26T15:07:11.138Z,7.4
2017-11-26T15:08:19.679Z,7.48
2017-11-26T15:09:28.215Z,7.34
2017-11-26T15:10:37.023Z,7.41
2017-11-26T15:11:45.836Z,7.3
2017-11-26T15:12:54.920Z,7.19
2017-11-26T15:14:04.002Z,7.19
2017-11-26T15:15:12.537Z,7.16
2017-11-26T15:16:21.344Z,7.21
2017-11-26T15:17:30.452Z,7.16
2017-11-26T15:18:39.278Z,7.18
2017-11-26T15:19:48.089Z,7.12
2017-11-26T15:20:56.627Z,7.03